Time;durP1;ratioP1;P1;durP2;ratioP2;P2;SDS_P1;SDS_P2;PMS_P1;PMS_P2;Temp;Humidity;BMP_temperature;BMP_pressure;BME280_temperature;BME280_humidity;BME280_pressure;Samples;Min_cycle;Max_cycle;Signal;HPM_P1;HPM_P2
2021/12/03 00:01:04;;;;;;;10.67;6.10;;;-0.70;99.90;;;;;;5157301;27;20250;-79
2021/12/03 00:03:31;;;;;;;8.40;4.40;;;-0.60;99.90;;;;;;5156557;27;20698;-79
2021/12/03 00:05:58;;;;;;;9.23;4.53;;;-0.50;99.90;;;;;;5154261;27;20185;-79
2021/12/03 00:08:26;;;;;;;9.80;4.40;;;-0.40;99.90;;;;;;5156874;27;20588;-79
2021/12/03 00:10:56;;;;;;;8.40;4.67;;;-0.30;99.90;;;;;;5156812;27;20223;-78
2021/12/03 00:13:25;;;;;;;10.23;5.47;;;-0.30;99.90;;;;;;5156640;27;20593;-79
2021/12/03 00:15:54;;;;;;;8.17;3.60;;;-0.30;99.90;;;;;;5156065;27;20190;-79
2021/12/03 00:18:21;;;;;;;6.13;3.60;;;-0.20;99.90;;;;;;5156555;27;20189;-79
2021/12/03 00:20:49;;;;;;;7.37;3.70;;;-0.20;99.90;;;;;;5156257;27;20657;-78
2021/12/03 00:23:17;;;;;;;8.23;3.43;;;-0.30;99.90;;;;;;5156516;27;20189;-79
2021/12/03 00:25:44;;;;;;;8.93;4.13;;;-0.30;99.90;;;;;;5155922;27;20660;-79
2021/12/03 00:28:12;;;;;;;7.03;3.43;;;-0.40;1.00;;;;;;5156551;27;20193;-79
2021/12/03 00:30:41;;;;;;;7.63;3.47;;;-0.40;1.00;;;;;;5156275;27;20217;-79
2021/12/03 00:33:09;;;;;;;7.93;3.90;;;-0.50;1.00;;;;;;5155666;27;20214;-79
2021/12/03 00:35:37;;;;;;;9.33;5.10;;;-0.60;1.00;;;;;;5156621;27;20548;-78
2021/12/03 00:38:04;;;;;;;16.03;5.60;;;-0.60;99.90;;;;;;5156667;27;20185;-78
2021/12/03 00:40:36;;;;;;;6.67;4.10;;;-0.70;99.90;;;;;;5156216;27;20225;-79
2021/12/03 00:43:04;;;;;;;6.83;3.90;;;-0.70;99.90;;;;;;5156313;27;20257;-79
2021/12/03 00:45:32;;;;;;;11.80;6.93;;;-0.80;99.90;;;;;;5155521;27;20565;-77
2021/12/03 00:48:00;;;;;;;10.17;4.90;;;-0.80;99.90;;;;;;5154829;27;20667;-79
2021/12/03 00:50:29;;;;;;;7.30;3.97;;;-0.80;99.90;;;;;;5155907;27;20763;-79
2021/12/03 00:52:57;;;;;;;8.47;4.13;;;-0.90;99.90;;;;;;5155644;27;20191;-79
2021/12/03 00:55:26;;;;;;;7.03;4.60;;;-0.90;99.90;;;;;;5155583;27;20193;-78
2021/12/03 00:57:54;;;;;;;7.97;4.17;;;-1.00;99.90;;;;;;5155912;27;20189;-78
2021/12/03 01:00:23;;;;;;;8.37;4.57;;;-1.00;99.90;;;;;;5155681;27;20237;-79
2021/12/03 01:02:51;;;;;;;7.03;4.20;;;-1.10;99.90;;;;;;5155683;27;20195;-78
2021/12/03 01:05:19;;;;;;;8.47;4.37;;;-1.10;99.90;;;;;;5155584;27;20189;-78
2021/12/03 01:07:46;;;;;;;10.20;4.60;;;-1.10;99.90;;;;;;5155751;27;20230;-79
2021/12/03 01:10:14;;;;;;;8.53;4.87;;;-1.20;99.90;;;;;;5155292;27;20400;-80
2021/12/03 01:12:41;;;;;;;9.93;4.47;;;-1.20;99.90;;;;;;5155243;27;20653;-79
2021/12/03 01:15:11;;;;;;;7.05;4.10;;;-1.20;99.90;;;;;;5156091;27;20195;-80
2021/12/03 01:17:38;;;;;;;10.63;4.03;;;-1.20;99.90;;;;;;5155848;27;20426;-79
2021/12/03 01:20:07;;;;;;;9.33;4.13;;;-1.20;99.90;;;;;;5155484;27;20306;-80
2021/12/03 01:22:36;;;;;;;10.63;5.03;;;-1.20;99.90;;;;;;5155415;27;20257;-80
2021/12/03 01:25:05;;;;;;;8.40;3.50;;;-1.20;99.90;;;;;;5155285;27;20196;-80
2021/12/03 01:27:32;;;;;;;10.03;3.40;;;-1.20;99.90;;;;;;5155278;27;20234;-79
2021/12/03 01:29:59;;;;;;;9.57;3.93;;;-1.20;99.90;;;;;;5155035;27;20601;-80
2021/12/03 01:32:26;;;;;;;9.00;4.70;;;-1.20;99.90;;;;;;5155076;27;20285;-80
2021/12/03 01:34:55;;;;;;;9.33;5.73;;;-1.30;99.90;;;;;;5155203;27;20230;-79
2021/12/03 01:37:22;;;;;;;8.30;3.13;;;-1.30;99.90;;;;;;5155240;27;20538;-80
2021/12/03 01:39:50;;;;;;;7.60;3.77;;;-1.30;99.90;;;;;;5154614;27;20221;-80
2021/12/03 01:42:17;;;;;;;5.93;3.57;;;-1.40;99.90;;;;;;5155213;27;20181;-79
2021/12/03 01:44:45;;;;;;;9.63;4.73;;;-1.40;99.90;;;;;;5154615;27;20725;-79
2021/12/03 01:47:12;;;;;;;8.10;4.23;;;-1.40;99.90;;;;;;5155005;27;20217;-80
2021/12/03 01:49:39;;;;;;;10.07;3.80;;;-1.40;99.90;;;;;;5154882;27;20250;-80
2021/12/03 01:52:06;;;;;;;8.17;4.27;;;-1.40;99.90;;;;;;5154866;27;20216;-80
2021/12/03 01:54:34;;;;;;;10.27;4.40;;;-1.40;99.90;;;;;;5154716;27;20266;-79
2021/12/03 01:57:02;;;;;;;7.63;3.80;;;-1.50;99.90;;;;;;5154746;27;20186;-80
2021/12/03 01:59:29;;;;;;;8.53;3.70;;;-1.50;99.90;;;;;;5153988;27;20181;-80
2021/12/03 02:01:56;;;;;;;11.90;3.97;;;-1.50;99.90;;;;;;5154755;27;20185;-80
2021/12/03 02:04:23;;;;;;;8.27;4.13;;;-1.60;99.90;;;;;;5154686;27;20193;-79
2021/12/03 02:06:50;;;;;;;13.47;4.63;;;-1.60;99.90;;;;;;5154077;27;20185;-80
2021/12/03 02:09:17;;;;;;;8.30;4.50;;;-1.60;99.90;;;;;;5154199;27;20246;-80
2021/12/03 02:11:44;;;;;;;12.30;3.90;;;-1.70;99.90;;;;;;5154060;27;20213;-79
2021/12/03 02:14:13;;;;;;;7.13;3.57;;;-1.70;99.90;;;;;;5154700;27;20233;-79
2021/12/03 02:16:40;;;;;;;6.47;4.00;;;-1.70;99.90;;;;;;5154184;27;20242;-80
2021/12/03 02:19:07;;;;;;;8.90;3.65;;;-1.80;99.90;;;;;;5154484;27;20193;-80
2021/12/03 02:21:35;;;;;;;9.93;4.37;;;-1.80;99.90;;;;;;5153614;27;20741;-79
2021/12/03 02:24:02;;;;;;;15.17;5.57;;;-1.80;99.90;;;;;;5154091;27;20641;-79
2021/12/03 02:26:29;;;;;;;9.77;3.70;;;-1.70;99.90;;;;;;5153709;27;20594;-80
2021/12/03 02:28:56;;;;;;;5.07;3.20;;;-1.80;99.90;;;;;;5153978;27;20649;-80
2021/12/03 02:31:25;;;;;;;13.67;3.83;;;-1.80;99.90;;;;;;5154438;27;20265;-80
2021/12/03 02:33:53;;;;;;;9.33;3.33;;;-1.80;99.90;;;;;;5154384;27;20186;-79
2021/12/03 02:36:21;;;;;;;11.57;4.37;;;-1.70;99.90;;;;;;5153977;27;20185;-80
2021/12/03 02:38:49;;;;;;;7.70;3.70;;;-1.70;99.90;;;;;;5153932;27;20201;-80
2021/12/03 02:41:16;;;;;;;9.53;3.40;;;-1.70;99.90;;;;;;5154255;27;20614;-80
2021/12/03 02:43:44;;;;;;;8.70;3.63;;;-1.70;99.90;;;;;;5154148;27;20637;-80
2021/12/03 02:46:11;;;;;;;10.10;4.40;;;-1.70;99.90;;;;;;5153940;27;20737;-80
2021/12/03 02:48:39;;;;;;;10.30;4.27;;;-1.70;99.90;;;;;;5153784;27;20602;-80
2021/12/03 02:51:08;;;;;;;14.40;3.80;;;-1.60;99.90;;;;;;5154081;27;20256;-79
2021/12/03 02:53:36;;;;;;;11.83;4.03;;;-1.60;99.90;;;;;;5153776;27;20217;-80
2021/12/03 02:56:06;;;;;;;10.30;2.67;;;-1.60;99.90;;;;;;5153560;27;20197;-80
2021/12/03 02:58:33;;;;;;;7.93;3.03;;;-1.60;99.90;;;;;;5154063;27;20261;-79
2021/12/03 03:01:01;;;;;;;7.77;4.17;;;-1.60;99.90;;;;;;5154040;27;20246;-80
2021/12/03 03:03:28;;;;;;;8.03;2.90;;;-1.60;99.90;;;;;;5154071;27;20185;-80
2021/12/03 03:05:55;;;;;;;9.17;4.60;;;-1.60;99.90;;;;;;5153334;27;20244;-79
2021/12/03 03:08:23;;;;;;;6.80;3.53;;;-1.50;99.90;;;;;;5153982;27;20241;-80
2021/12/03 03:10:50;;;;;;;5.27;2.97;;;-1.50;99.90;;;;;;5156488;27;20189;-79
2021/12/03 03:13:19;;;;;;;8.50;2.77;;;-1.50;99.90;;;;;;5157716;27;20234;-80
2021/12/03 03:15:46;;;;;;;7.40;2.53;;;-1.40;99.90;;;;;;5157804;27;20649;-80
2021/12/03 03:18:16;;;;;;;7.93;3.03;;;-1.40;99.90;;;;;;5158137;27;20269;-80
2021/12/03 03:20:45;;;;;;;7.63;2.97;;;-1.40;99.90;;;;;;5158149;27;20238;-80
2021/12/03 03:23:15;;;;;;;8.43;2.80;;;-1.40;99.90;;;;;;5157225;27;20185;-80
2021/12/03 03:25:42;;;;;;;10.03;3.83;;;-1.30;99.90;;;;;;5157417;27;20261;-80
2021/12/03 03:28:10;;;;;;;10.60;3.63;;;-1.30;99.90;;;;;;5157841;27;20584;-78
2021/12/03 03:30:40;;;;;;;10.03;3.03;;;-1.30;99.90;;;;;;5157677;27;20204;-80
2021/12/03 03:33:07;;;;;;;7.73;3.00;;;-1.30;99.90;;;;;;5157510;27;20596;-80
2021/12/03 03:35:35;;;;;;;9.50;3.40;;;-1.20;99.90;;;;;;5157492;27;20185;-79
2021/12/03 03:38:02;;;;;;;10.60;4.77;;;-1.20;99.90;;;;;;5157544;27;20245;-80
2021/12/03 03:40:29;;;;;;;8.37;4.77;;;-1.20;99.90;;;;;;5156972;27;20267;-80
2021/12/03 03:42:58;;;;;;;10.80;7.40;;;-1.20;99.90;;;;;;5157456;27;20201;-80
2021/12/03 03:45:26;;;;;;;8.23;3.60;;;-1.20;99.90;;;;;;5157013;27;20193;-80
2021/12/03 03:47:54;;;;;;;8.40;2.97;;;-1.20;99.90;;;;;;5157057;27;20221;-80
2021/12/03 03:50:23;;;;;;;15.83;7.60;;;-1.20;99.90;;;;;;5156380;27;20589;-79
2021/12/03 03:52:53;;;;;;;9.40;3.47;;;-1.10;99.90;;;;;;5156714;27;20213;-80
2021/12/03 03:55:20;;;;;;;9.70;3.70;;;-1.10;99.90;;;;;;5157281;27;20177;-80
2021/12/03 03:57:48;;;;;;;8.93;2.70;;;-1.10;99.90;;;;;;5157203;27;20319;-80
2021/12/03 04:00:18;;;;;;;4.97;2.57;;;-1.10;99.90;;;;;;5156969;27;20230;-80
2021/12/03 04:02:46;;;;;;;8.57;3.60;;;-1.10;99.90;;;;;;5157012;27;20206;-79
2021/12/03 04:05:14;;;;;;;7.80;2.90;;;-1.10;99.90;;;;;;5156567;27;20276;-79
2021/12/03 04:07:42;;;;;;;6.83;3.20;;;-1.10;99.90;;;;;;5156617;27;20185;-80
2021/12/03 04:10:10;;;;;;;7.03;2.57;;;-1.10;99.90;;;;;;5156967;27;20189;-80
2021/12/03 04:12:38;;;;;;;5.90;2.57;;;-1.10;99.90;;;;;;5156486;27;20627;-80
2021/12/03 04:15:07;;;;;;;7.10;2.80;;;-1.10;99.90;;;;;;5156553;27;20195;-79
2021/12/03 04:17:35;;;;;;;5.67;3.20;;;-1.00;99.90;;;;;;5156674;27;20261;-80
2021/12/03 04:20:02;;;;;;;5.17;3.10;;;-1.10;99.90;;;;;;5156643;27;20185;-80
2021/12/03 04:22:32;;;;;;;7.50;4.27;;;-1.10;99.90;;;;;;5156063;27;20718;-79
2021/12/03 04:25:01;;;;;;;9.83;4.40;;;-1.10;99.90;;;;;;5155961;27;20181;-80
2021/12/03 04:27:29;;;;;;;6.93;3.27;;;-1.10;99.90;;;;;;5156173;27;20280;-79
2021/12/03 04:29:56;;;;;;;8.70;3.80;;;-1.10;99.90;;;;;;5156378;27;20193;-80
2021/12/03 04:32:25;;;;;;;8.27;3.27;;;-1.10;99.90;;;;;;5156069;27;20238;-80
2021/12/03 04:34:52;;;;;;;9.93;3.60;;;-1.00;99.90;;;;;;5155733;27;20185;-80
2021/12/03 04:37:19;;;;;;;10.63;3.80;;;-1.00;99.90;;;;;;5156378;27;20234;-80
2021/12/03 04:39:47;;;;;;;5.73;3.23;;;-1.00;99.90;;;;;;5156433;27;20225;-80
2021/12/03 04:42:14;;;;;;;9.10;4.00;;;-0.90;99.90;;;;;;5156230;27;20186;-80
2021/12/03 04:44:41;;;;;;;11.63;4.47;;;-0.90;99.90;;;;;;5155811;27;20245;-80
2021/12/03 04:47:08;;;;;;;10.17;4.37;;;-0.90;99.90;;;;;;5155986;27;20585;-80
2021/12/03 04:49:35;;;;;;;10.50;4.20;;;-0.80;99.90;;;;;;5155654;27;20204;-80
2021/12/03 04:52:03;;;;;;;10.23;3.37;;;-0.80;99.90;;;;;;5155367;27;20253;-80
2021/12/03 04:54:30;;;;;;;10.70;3.50;;;-0.70;99.90;;;;;;5155389;27;20669;-80
2021/12/03 04:56:58;;;;;;;5.53;3.40;;;-0.70;99.90;;;;;;5156009;27;20189;-80
2021/12/03 04:59:26;;;;;;;10.37;3.77;;;-0.70;99.90;;;;;;5155846;27;20597;-79
2021/12/03 05:01:56;;;;;;;8.10;3.83;;;-0.60;99.90;;;;;;5155141;27;20718;-80
2021/12/03 05:04:23;;;;;;;9.57;3.70;;;-0.60;99.90;;;;;;5156087;27;20195;-80
2021/12/03 05:06:55;;;;;;;8.40;3.70;;;-0.60;99.90;;;;;;5156004;27;20243;-79
2021/12/03 05:09:22;;;;;;;9.93;4.07;;;-0.50;99.90;;;;;;5155400;27;20178;-80
2021/12/03 05:11:50;;;;;;;9.30;3.20;;;-0.50;99.90;;;;;;5155552;27;20201;-80
2021/12/03 05:14:18;;;;;;;8.33;2.87;;;-0.50;99.90;;;;;;5155446;27;20713;-80
2021/12/03 05:16:48;;;;;;;12.07;4.03;;;-0.50;99.90;;;;;;5155446;27;20189;-80
2021/12/03 05:19:16;;;;;;;10.77;3.40;;;-0.50;99.90;;;;;;5155527;27;20189;-79
2021/12/03 05:21:43;;;;;;;8.40;3.20;;;-0.50;99.90;;;;;;5154341;27;20200;-79
2021/12/03 05:24:10;;;;;;;8.90;3.40;;;-0.50;99.90;;;;;;5155334;27;20594;-80
2021/12/03 05:26:39;;;;;;;6.87;3.27;;;-0.50;99.90;;;;;;5155482;27;20189;-80
2021/12/03 05:29:07;;;;;;;8.97;3.83;;;-0.50;99.90;;;;;;5155299;27;20189;-79
2021/12/03 05:31:37;;;;;;;8.00;3.77;;;-0.60;99.90;;;;;;5154542;27;20194;-80
2021/12/03 05:34:10;;;;;;;9.00;3.93;;;-0.60;99.90;;;;;;5154941;27;20667;-80
2021/12/03 05:36:37;;;;;;;9.70;4.43;;;-0.60;99.90;;;;;;5155298;27;20525;-80
2021/12/03 05:39:07;;;;;;;5.90;3.30;;;-0.60;99.90;;;;;;5155085;27;20195;-80
2021/12/03 05:41:35;;;;;;;6.10;3.27;;;-0.60;99.90;;;;;;5154892;27;20603;-80
2021/12/03 05:44:03;;;;;;;9.17;3.87;;;-0.60;99.90;;;;;;5154686;27;20189;-80
2021/12/03 05:46:30;;;;;;;8.60;3.60;;;-0.60;99.90;;;;;;5154567;27;20193;-81
2021/12/03 05:48:58;;;;;;;12.23;3.50;;;-0.60;99.90;;;;;;5154897;27;20347;-81
2021/12/03 05:51:28;;;;;;;6.23;3.40;;;-0.70;99.90;;;;;;5154513;27;20185;-79
2021/12/03 05:53:55;;;;;;;10.93;3.80;;;-0.60;99.90;;;;;;5154481;27;20661;-79
2021/12/03 05:56:22;;;;;;;9.80;4.03;;;-0.70;99.90;;;;;;5154721;27;20185;-80
2021/12/03 05:58:49;;;;;;;8.63;5.07;;;-0.60;99.90;;;;;;5154807;27;20554;-80
2021/12/03 06:01:19;;;;;;;9.10;5.80;;;-0.60;99.90;;;;;;5153936;27;20184;-80
2021/12/03 06:03:47;;;;;;;11.07;5.30;;;-0.60;99.90;;;;;;5154340;27;20200;-79
2021/12/03 06:06:16;;;;;;;10.10;4.17;;;-0.60;99.90;;;;;;5154649;27;20245;-81
2021/12/03 06:08:43;;;;;;;11.37;5.20;;;-0.60;99.90;;;;;;5154318;27;20698;-80
2021/12/03 06:11:10;;;;;;;12.20;5.10;;;-0.60;99.90;;;;;;5154317;27;20242;-81
2021/12/03 06:13:39;;;;;;;11.50;4.63;;;-0.70;99.90;;;;;;5154095;27;20257;-80
2021/12/03 06:16:07;;;;;;;11.17;5.50;;;-0.60;99.90;;;;;;5154503;27;20279;-80
2021/12/03 06:18:34;;;;;;;8.90;4.07;;;-0.60;99.90;;;;;;5154409;27;20193;-79
2021/12/03 06:21:02;;;;;;;8.27;4.50;;;-0.60;99.90;;;;;;5154089;27;20245;-80
2021/12/03 06:23:31;;;;;;;13.00;5.20;;;-0.60;99.90;;;;;;5152740;27;20288;-80
2021/12/03 06:26:00;;;;;;;8.87;5.30;;;-0.60;99.90;;;;;;5154463;27;20199;-80
2021/12/03 06:28:28;;;;;;;10.00;5.43;;;-0.50;99.90;;;;;;5153728;27;20189;-79
2021/12/03 06:30:55;;;;;;;15.10;6.50;;;-0.50;99.90;;;;;;5154395;27;20189;-81
2021/12/03 06:33:25;;;;;;;12.97;5.70;;;-0.50;99.90;;;;;;5154572;27;20213;-81
2021/12/03 06:35:52;;;;;;;13.17;6.27;;;-0.40;99.90;;;;;;5154310;27;20230;-79
2021/12/03 06:38:19;;;;;;;14.73;6.73;;;-0.40;99.90;;;;;;5153964;27;20185;-80
2021/12/03 06:40:49;;;;;;;15.43;7.93;;;-0.40;99.90;;;;;;5133434;27;20221;-80
2021/12/03 06:43:16;;;;;;;14.87;7.00;;;-0.30;99.90;;;;;;5133520;28;20201;-80
2021/12/03 06:45:43;;;;;;;11.07;7.30;;;-0.30;99.90;;;;;;5135688;27;20194;-80
2021/12/03 06:48:11;;;;;;;15.10;7.13;;;-0.30;99.90;;;;;;5150448;27;20710;-79
2021/12/03 06:50:39;;;;;;;12.77;6.13;;;-0.30;99.90;;;;;;5158031;27;20706;-80
2021/12/03 06:53:08;;;;;;;22.60;8.73;;;-0.20;99.90;;;;;;5157985;27;20244;-82
2021/12/03 06:55:40;;;;;;;12.37;6.10;;;-0.20;99.90;;;;;;5137032;27;20194;-81
2021/12/03 06:58:09;;;;;;;20.87;7.83;;;-0.20;99.90;;;;;;5150105;27;20177;-80
2021/12/03 07:00:36;;;;;;;23.07;9.97;;;-0.20;99.90;;;;;;5157815;27;20653;-82
2021/12/03 07:03:03;;;;;;;10.50;5.80;;;-0.20;99.90;;;;;;5157162;27;20242;-81
2021/12/03 07:05:30;;;;;;;16.50;6.87;;;-0.20;99.90;;;;;;5157770;27;20194;-81
2021/12/03 07:07:57;;;;;;;28.80;12.00;;;-0.20;99.90;;;;;;5157565;27;20695;-82
2021/12/03 07:10:24;;;;;;;13.30;6.80;;;-0.10;99.90;;;;;;5158214;27;20266;-82
2021/12/03 07:12:51;;;;;;;9.77;5.93;;;-0.10;99.90;;;;;;5157926;27;20213;-81
2021/12/03 07:15:22;;;;;;;12.23;6.30;;;-0.10;99.90;;;;;;5157883;27;20189;-81
2021/12/03 07:17:51;;;;;;;13.07;6.50;;;0.00;99.90;;;;;;5157938;27;20241;-81
2021/12/03 07:20:19;;;;;;;11.87;6.63;;;0.00;99.90;;;;;;5157803;27;20193;-80
2021/12/03 07:22:46;;;;;;;13.60;6.63;;;0.10;99.90;;;;;;5157873;27;20276;-80
2021/12/03 07:25:13;;;;;;;15.33;7.73;;;0.10;99.90;;;;;;5157422;27;20242;-81
2021/12/03 07:27:41;;;;;;;12.63;6.90;;;0.10;99.90;;;;;;5157487;27;20189;-80
2021/12/03 07:30:10;;;;;;;21.37;8.30;;;0.10;99.90;;;;;;5157257;27;20173;-82
2021/12/03 07:32:39;;;;;;;14.67;7.13;;;0.10;99.90;;;;;;5157128;27;20637;-82
2021/12/03 07:35:18;;;;;;;12.90;7.00;;;0.10;99.90;;;;;;5157595;27;20195;-80
2021/12/03 07:37:45;;;;;;;12.70;7.80;;;0.20;99.90;;;;;;5156707;27;20188;-82
2021/12/03 07:40:14;;;;;;;19.63;6.87;;;0.30;99.90;;;;;;5157137;27;20225;-80
2021/12/03 07:42:44;;;;;;;14.73;6.87;;;0.30;99.90;;;;;;5157128;27;20238;-82
2021/12/03 07:45:14;;;;;;;26.13;8.17;;;0.40;99.90;;;;;;5157098;27;20181;-81
2021/12/03 07:47:50;;;;;;;13.30;6.30;;;0.60;99.90;;;;;;5156978;27;20569;-81
2021/12/03 07:50:17;;;;;;;13.97;5.67;;;0.70;99.90;;;;;;5156526;27;20212;-83
2021/12/03 07:52:44;;;;;;;12.00;6.17;;;0.70;99.90;;;;;;5156826;27;20802;-81
2021/12/03 07:55:12;;;;;;;11.50;6.27;;;0.70;99.90;;;;;;5156397;27;20194;-82
2021/12/03 07:57:39;;;;;;;11.60;6.23;;;0.70;99.90;;;;;;5157227;27;20234;-82
2021/12/03 08:00:06;;;;;;;13.80;5.97;;;0.70;99.90;;;;;;5157204;27;20189;-82
2021/12/03 08:02:36;;;;;;;12.03;5.73;;;0.70;99.90;;;;;;5157085;27;20193;-79
2021/12/03 08:05:07;;;;;;;12.87;6.20;;;0.70;99.90;;;;;;5156356;27;20189;-80
2021/12/03 08:07:35;;;;;;;9.50;5.60;;;0.70;99.90;;;;;;5156288;27;20233;-82
2021/12/03 08:10:02;;;;;;;18.13;6.17;;;0.70;99.90;;;;;;5153866;27;20181;-82
2021/12/03 08:12:31;;;;;;;12.87;5.07;;;0.70;99.90;;;;;;5156860;27;20212;-81
2021/12/03 08:14:58;;;;;;;14.57;5.30;;;0.80;99.90;;;;;;5156318;27;20211;-82
2021/12/03 08:17:25;;;;;;;12.43;5.40;;;0.90;99.90;;;;;;5156760;27;20266;-80
2021/12/03 08:19:52;;;;;;;11.53;6.40;;;0.90;99.90;;;;;;5156260;27;20531;-82
2021/12/03 08:22:21;;;;;;;11.63;5.60;;;0.90;99.90;;;;;;5156029;27;20614;-81
2021/12/03 08:24:48;;;;;;;13.73;6.17;;;1.00;99.90;;;;;;5155913;27;20275;-83
2021/12/03 08:27:15;;;;;;;12.37;5.23;;;1.00;99.90;;;;;;5155947;27;20224;-80
2021/12/03 08:29:43;;;;;;;14.67;6.10;;;1.10;99.90;;;;;;5156081;27;20304;-82
2021/12/03 08:32:11;;;;;;;13.63;6.57;;;1.10;99.90;;;;;;5155858;27;20246;-80
2021/12/03 08:34:38;;;;;;;15.13;5.90;;;1.20;99.90;;;;;;5155424;27;20697;-80
2021/12/03 08:37:06;;;;;;;10.90;5.80;;;1.30;99.90;;;;;;5155725;27;20238;-81
2021/12/03 08:39:35;;;;;;;9.23;5.10;;;1.40;99.90;;;;;;5154974;27;20281;-83
2021/12/03 08:42:03;;;;;;;11.07;5.83;;;1.40;99.90;;;;;;5154912;27;20241;-81
2021/12/03 08:44:31;;;;;;;12.80;5.27;;;1.50;99.90;;;;;;5154247;27;20185;-80
2021/12/03 08:47:01;;;;;;;10.33;5.10;;;1.50;99.90;;;;;;5153043;27;20190;-81
2021/12/03 08:49:30;;;;;;;18.30;7.50;;;1.40;99.90;;;;;;5156734;27;20185;-80
2021/12/03 08:54:50;;;;;;;14.77;6.13;;;1.80;99.90;;;;;;5155106;27;20201;-81
2021/12/03 08:57:19;;;;;;;9.70;5.30;;;2.00;99.90;;;;;;5156094;27;20185;-83
2021/12/03 08:59:46;;;;;;;10.87;5.10;;;2.10;99.90;;;;;;5155855;27;20640;-82
2021/12/03 09:02:13;;;;;;;11.97;5.57;;;2.10;99.90;;;;;;5155761;27;20320;-79
2021/12/03 09:04:43;;;;;;;10.13;5.20;;;2.10;99.90;;;;;;5155188;27;20534;-82
2021/12/03 09:07:10;;;;;;;10.93;5.00;;;2.30;99.90;;;;;;5154920;27;20282;-81
2021/12/03 09:09:37;;;;;;;10.37;6.13;;;2.40;99.90;;;;;;5155810;27;20273;-80
2021/12/03 09:12:06;;;;;;;9.33;5.27;;;2.50;99.90;;;;;;5155293;27;20671;-81
2021/12/03 09:14:38;;;;;;;8.80;4.93;;;2.60;99.90;;;;;;5154682;27;20209;-82
2021/12/03 09:17:16;;;;;;;8.53;4.80;;;2.90;99.90;;;;;;5155210;27;20181;-81
2021/12/03 09:19:51;;;;;;;11.40;5.03;;;2.90;99.90;;;;;;5155255;27;20178;-81
2021/12/03 09:22:26;;;;;;;9.67;4.50;;;3.00;99.90;;;;;;5154973;27;20184;-80
2021/12/03 09:24:55;;;;;;;9.50;6.23;;;3.20;99.90;;;;;;5155137;27;21042;-82
2021/12/03 09:27:23;;;;;;;11.57;5.93;;;3.10;99.90;;;;;;5154934;27;20199;-81
2021/12/03 09:29:54;;;;;;;13.60;8.63;;;3.20;99.90;;;;;;5155210;27;20197;-80
2021/12/03 09:32:23;;;;;;;11.30;5.67;;;3.20;99.90;;;;;;5153557;27;20204;-81
2021/12/03 09:34:50;;;;;;;9.17;5.07;;;3.10;99.90;;;;;;5154493;27;20545;-82
2021/12/03 09:37:18;;;;;;;19.73;11.67;;;3.30;99.90;;;;;;5155162;27;20248;-80
2021/12/03 09:39:46;;;;;;;9.03;4.07;;;3.30;99.90;;;;;;5154786;27;20236;-83
2021/12/03 09:42:14;;;;;;;10.50;5.63;;;3.20;99.90;;;;;;5154742;27;20177;-80
2021/12/03 09:44:45;;;;;;;10.10;5.13;;;3.20;99.90;;;;;;5153823;27;20195;-82
2021/12/03 09:47:15;;;;;;;13.20;8.07;;;3.20;99.90;;;;;;5154172;27;20216;-83
2021/12/03 09:49:43;;;;;;;7.90;4.20;;;3.20;99.90;;;;;;5154574;27;20191;-82
2021/12/03 09:52:17;;;;;;;10.47;4.93;;;3.30;99.90;;;;;;5154193;27;20183;-81
2021/12/03 09:54:48;;;;;;;10.47;4.90;;;3.20;99.90;;;;;;5153502;27;20594;-82
2021/12/03 09:57:19;;;;;;;8.47;4.93;;;3.10;99.90;;;;;;5156624;27;20572;-81
2021/12/03 10:02:41;;;;;;;28.77;25.03;;;3.00;99.90;;;;;;5155847;27;20180;-82
2021/12/03 10:05:59;;;;;;;11.07;5.03;;;3.00;99.90;;;;;;5155095;27;20185;-83
2021/12/03 10:13:51;;;;;;;11.03;5.50;;;2.90;99.90;;;;;;5151477;27;20212;-80
2021/12/03 10:16:37;;;;;;;8.83;4.40;;;2.80;99.90;;;;;;5153831;27;20279;-81
2021/12/03 10:19:19;;;;;;;10.33;4.40;;;2.80;99.90;;;;;;5153773;27;20717;-79
2021/12/03 10:25:14;;;;;;;8.90;4.83;;;2.80;99.90;;;;;;5049895;28;20178;-79
2021/12/03 10:33:32;;;;;;;11.70;7.47;;;2.80;99.90;;;;;;5147068;27;20195;-79
2021/12/03 10:38:50;;;;;;;11.73;5.70;;;2.90;99.90;;;;;;5150489;27;20185;-79
2021/12/03 10:41:30;;;;;;;9.50;4.70;;;2.90;99.90;;;;;;5140768;27;20213;-79
2021/12/03 10:44:06;;;;;;;9.27;5.07;;;2.80;99.90;;;;;;5112144;28;20192;-79
2021/12/03 10:52:32;;;;;;;7.83;4.90;;;2.80;99.90;;;;;;5094177;28;20195;-80
2021/12/03 13:15:52;;;;;;;8.13;4.20;;;2.90;99.90;;;;;;5078829;28;20716;-78
2021/12/03 13:27:16;;;;;;;11.93;5.70;;;2.80;99.90;;;;;;5087939;28;20190;-78
2021/12/03 14:43:10;;;;;;;11.27;6.37;;;1.70;99.90;;;;;;5064330;28;20655;-77
2021/12/03 14:48:39;;;;;;;16.07;10.20;;;1.60;99.90;;;;;;5052266;28;20662;-78
2021/12/03 14:51:17;;;;;;;15.50;9.03;;;1.60;99.90;;;;;;5069162;28;20187;-77
2021/12/03 14:56:33;;;;;;;13.50;7.23;;;1.50;99.90;;;;;;5063402;28;20196;-79
2021/12/03 14:59:12;;;;;;;13.80;7.53;;;1.50;99.90;;;;;;5073576;28;20176;-78
2021/12/03 15:01:57;;;;;;;11.43;7.17;;;1.50;99.90;;;;;;5073626;28;20172;-78
2021/12/03 15:04:51;;;;;;;13.57;6.43;;;1.40;99.90;;;;;;5089404;28;20684;-78
2021/12/03 15:07:22;;;;;;;12.37;6.50;;;1.40;99.90;;;;;;5073145;28;20275;-79
2021/12/03 15:09:51;;;;;;;11.43;6.87;;;1.40;99.90;;;;;;5073272;28;20180;-78
2021/12/03 15:20:58;;;;;;;11.87;6.63;;;1.40;99.90;;;;;;5072329;28;20203;-78
2021/12/03 15:24:06;;;;;;;13.23;6.10;;;1.40;99.90;;;;;;5054333;28;20228;-77
2021/12/03 15:29:50;;;;;;;9.87;5.87;;;1.30;99.90;;;;;;5070896;28;20191;-78
2021/12/03 15:32:30;;;;;;;14.50;7.07;;;1.30;99.90;;;;;;5065812;28;20179;-79
2021/12/03 15:35:04;;;;;;;46.80;21.77;;;1.30;99.90;;;;;;5070616;28;20218;-77
2021/12/03 15:37:53;;;;;;;16.53;7.90;;;1.30;99.90;;;;;;5071007;28;20207;-79
2021/12/03 15:40:37;;;;;;;13.07;6.77;;;1.30;99.90;;;;;;5069011;28;20196;-78
2021/12/03 15:57:11;;;;;;;13.57;6.27;;;1.40;99.90;;;;;;5073343;28;20236;-79
2021/12/03 16:05:15;;;;;;;12.83;6.03;;;1.50;99.90;;;;;;5072781;28;20223;-79
2021/12/03 16:08:00;;;;;;;16.33;8.10;;;1.40;99.90;;;;;;5072100;28;20219;-77
2021/12/03 16:10:30;;;;;;;14.57;6.63;;;1.40;99.90;;;;;;5072673;28;20176;-78
2021/12/03 16:21:42;;;;;;;18.83;10.73;;;1.40;99.90;;;;;;5029100;28;20224;-79
2021/12/03 16:43:59;;;;;;;17.93;8.50;;;1.40;99.90;;;;;;4990577;28;20350;-79
2021/12/03 16:46:45;;;;;;;17.17;8.63;;;1.30;99.90;;;;;;5053094;28;20183;-80
2021/12/03 16:51:57;;;;;;;18.43;8.70;;;1.30;99.90;;;;;;5071407;28;20242;-78
2021/12/03 16:54:28;;;;;;;16.53;8.97;;;1.40;99.90;;;;;;5071282;28;20210;-77
2021/12/03 16:56:56;;;;;;;19.53;10.63;;;1.40;99.90;;;;;;5071375;28;20540;-78
2021/12/03 16:59:24;;;;;;;26.60;12.73;;;1.40;99.90;;;;;;5071803;28;20306;-78
2021/12/03 17:01:58;;;;;;;18.03;10.93;;;1.30;99.90;;;;;;5071703;28;20615;-78
2021/12/03 17:04:41;;;;;;;21.93;10.90;;;1.40;99.90;;;;;;5071486;28;20696;-78
2021/12/03 17:07:53;;;;;;;18.73;10.80;;;1.30;99.90;;;;;;5072164;28;20210;-78
2021/12/03 17:13:27;;;;;;;19.97;10.10;;;1.30;99.90;;;;;;5072005;28;20191;-79
2021/12/03 17:16:29;;;;;;;23.37;12.27;;;1.30;99.90;;;;;;5071213;28;20207;-79
2021/12/03 17:58:22;;;;;;;18.90;10.47;;;1.20;99.90;;;;;;5089966;28;20172;-83
2021/12/03 18:01:05;;;;;;;17.67;10.13;;;1.10;99.90;;;;;;5100133;28;20227;-82
2021/12/03 18:10:25;;;;;;;22.17;10.80;;;1.10;99.90;;;;;;5097402;28;20187;-82
2021/12/03 18:44:29;;;;;;;17.80;10.17;;;0.90;99.90;;;;;;5060308;28;20195;-81
2021/12/03 18:47:19;;;;;;;14.80;9.47;;;0.90;99.90;;;;;;5073738;28;20208;-80
2021/12/03 18:52:52;;;;;;;17.13;10.13;;;1.00;99.90;;;;;;5061073;28;20265;-80
2021/12/03 18:55:29;;;;;;;17.10;8.57;;;1.00;99.90;;;;;;5074528;28;20244;-79
2021/12/03 18:57:59;;;;;;;14.97;8.83;;;1.10;99.90;;;;;;5074806;28;20179;-79
2021/12/03 19:00:30;;;;;;;16.50;7.77;;;1.10;99.90;;;;;;5074761;28;20232;-80
2021/12/03 19:02:59;;;;;;;14.60;8.07;;;1.10;99.90;;;;;;5073287;28;20667;-80
2021/12/03 19:05:35;;;;;;;14.20;8.03;;;1.10;99.90;;;;;;5071630;28;20192;-79
2021/12/03 19:08:08;;;;;;;17.17;8.80;;;1.10;99.90;;;;;;5074497;28;20195;-79
2021/12/03 19:10:42;;;;;;;13.53;7.57;;;1.10;99.90;;;;;;5074105;28;20180;-80
2021/12/03 19:13:13;;;;;;;11.83;6.53;;;1.20;99.90;;;;;;5073546;28;20692;-80
2021/12/03 19:15:42;;;;;;;11.43;6.13;;;1.20;99.90;;;;;;5074230;28;20592;-80
2021/12/03 19:18:09;;;;;;;12.40;7.53;;;1.20;99.90;;;;;;5073995;28;20188;-79
2021/12/03 19:20:41;;;;;;;13.97;7.90;;;1.20;99.90;;;;;;5073591;28;20680;-80
2021/12/03 19:23:08;;;;;;;15.57;8.17;;;1.20;99.90;;;;;;5073715;28;20180;-80
2021/12/03 19:25:36;;;;;;;14.80;8.20;;;1.20;99.90;;;;;;5073766;28;20196;-80
2021/12/03 19:28:04;;;;;;;16.27;8.83;;;1.10;99.90;;;;;;5073846;28;20199;-80
2021/12/03 19:30:34;;;;;;;15.43;8.57;;;1.20;99.90;;;;;;5073200;28;20710;-80
2021/12/03 19:33:01;;;;;;;17.80;9.90;;;1.20;99.90;;;;;;5073486;28;20199;-80
2021/12/03 19:35:28;;;;;;;13.70;7.70;;;1.20;99.90;;;;;;5072002;28;20547;-80
2021/12/03 19:37:57;;;;;;;14.17;8.00;;;1.20;99.90;;;;;;5072049;28;20188;-80
2021/12/03 19:40:28;;;;;;;21.97;11.60;;;1.20;99.90;;;;;;5071617;28;20253;-79
2021/12/03 19:43:01;;;;;;;28.43;14.43;;;1.30;99.90;;;;;;5071970;28;20688;-80